Terminal Aerodrome Forecast
Issued by NWS

Home | Current Version | Previous Version | Text Only | Print | Product List | Glossary On
Versions: 1 2 3 4 5 6 7 8 9 10 11 12 13 14 15 16 17 18 19 20 21
000
FTUS45 KGJT 240520
TAFASE
TAF
KASE 240520Z 2406/2506 33008KT P6SM BKN050 OVC080
     FM240700 34008KT P6SM SCT080 BKN120
     FM241000 25004KT P6SM SCT120
     FM241900 20010G20KT P6SM BKN150
     FM250100 20005KT P6SM SCT200=

USA.gov is the U.S. government's official web portal to all federal, state and local government web resources and services.